• Join FlightAware (Why Join?)
  • Login
  • US Flag 
Gobble Gobble! 
09:09PM EST


 

Airport Tracker/Info


-or-


 

Live Flight TrackerFlight Track Log ✈ UAL407 ✈ 02-May-2013 ✈ KORD - KPDX

Flight Track Log - Related Links

Times and Time Zones

All times are in EDT time to prevent confusion due to time zone crossing. See the UAL407 flight status page for this flight to view local times or setup timezone preferences in your user account.

Time Position Orientation Groundspeed Altitude Reporting Facility
EDT Latitude Longitude Course Direction KTS MPH feet Rate Location/Type
11:28PM 42.0000 -87.9333 270° West 153 176 1,700  Level Chicago TRACON
11:29PM 42.0333 -87.9667 323° Northwest 208 239 2,900 1,380 Climbing Chicago TRACON
11:30PM 42.0667 -88.0500 298° West 274 315 4,500 2,460 Climbing Chicago TRACON
11:31PM 41.9667 -88.3535 270° West  Level FlightAware Approximate
11:32PM 41.9667 -88.5047 270° West  Level FlightAware Approximate
11:32PM 42.0789 -88.2067 276° West 279 321 9,600  Level Chicago Center
11:33PM 41.9668 -88.6558 270° West  Level FlightAware Approximate
11:33PM 42.0803 -88.3183 271° West 295 339 12,400  Level Chicago Center
11:34PM 41.9667 -88.8070 270° West  Level FlightAware Approximate
11:34PM 42.0833 -88.4383 272° West 320 368 14,900  Level Chicago Center
11:35PM 42.0892 -88.5922 273° West 343 395 18,700 3,180 Climbing Chicago Center
11:36PM 42.0950 -88.7253 273° West 356 410 21,400 2,160 Climbing Chicago Center
11:37PM 42.1014 -88.8550 274° West 367 422 23,100 900 Climbing Chicago Center
11:38PM 42.1100 -89.0125 274° West 415 478 23,300 1,560 Climbing Chicago Center
11:39PM 42.1203 -89.1789 275° West 439 505 26,300 2,340 Climbing Chicago Center
11:40PM 42.1589 -89.3281 289° West 418 481 28,100 1,320 Climbing Chicago Center
11:41PM 42.1967 -89.4806 289° West 427 491 29,000 780 Climbing Chicago Center
11:42PM 42.2381 -89.6347 290° West 436 502 29,800 900 Climbing Chicago Center
11:43PM 42.2861 -89.8175 290° West 440 506 30,900 1,140 Climbing Chicago Center
11:44PM 42.3231 -89.9600 289° West 441 507 32,100 780 Climbing Chicago Center
11:45PM 42.3608 -90.1128 289° West 431 496 32,600 540 Climbing Chicago Center
11:46PM 42.4011 -90.2731 289° West 451 519 33,300 780 Climbing Chicago Center
11:47PM 42.4422 -90.4303 290° West 448 516 34,200 840 Climbing Chicago Center
11:48PM 42.4819 -90.5892 289° West 448 516 35,100 840 Climbing Chicago Center
11:49PM 42.5228 -90.7469 289° West 448 516 36,000 480 Climbing Chicago Center
11:50PM 42.5611 -90.9008 289° West 437 503 36,100  Climbing Chicago Center
11:52PM 42.6272 -91.1806 288° West 439 505 36,000 -60 Descending Minneapolis Center
11:52PM 42.6439 -91.2428 290° West 436 502 36,000 60 Level Chicago Center
11:53PM 42.6819 -91.4000 288° West 438 504 36,100  Climbing Chicago Center
11:54PM 42.7042 -91.4953 288° West 440 506 36,100  Level Minneapolis Center
11:55PM 42.7442 -91.6583 289° West 441 507 36,100  Level Minneapolis Center
11:56PM 42.7836 -91.8267 288° West 445 512 36,100  Level Minneapolis Center
11:57PM 42.8208 -91.9858 288° West 445 512 36,100  Level Minneapolis Center
11:58PM 42.8583 -92.1469 288° West 447 514 36,100  Level Minneapolis Center
11:59PM 42.8950 -92.3072 287° West 446 513 36,100 -60 Level Minneapolis Center
12:00AM 42.9322 -92.4658 288° West 443 510 36,000  Descending Minneapolis Center
12:01AM 42.9686 -92.6250 287° West 443 510 36,100  Climbing Minneapolis Center
12:02AM 43.0122 -92.8172 287° West 445 512 36,100 -60 Level Minneapolis Center
12:03AM 43.0486 -92.9753 288° West 441 507 36,000  Descending Minneapolis Center
12:04AM 43.0833 -93.1333 287° West 438 504 36,100  Climbing Minneapolis Center
12:05AM 43.1192 -93.2889 288° West 433 498 36,000 -60 Descending Minneapolis Center
12:06AM 43.1464 -93.4147 287° West 433 498 36,000  Level Minneapolis Center
12:07AM 43.1814 -93.5728 287° West 436 502 36,000  Level Minneapolis Center
12:08AM 43.2233 -93.7639 287° West 440 506 36,100  Climbing Minneapolis Center
12:09AM 43.2581 -93.9222 287° West 437 503 36,100  Level Minneapolis Center
12:10AM 43.2928 -94.0794 287° West 436 502 36,100 -60 Level Minneapolis Center
12:11AM 43.3314 -94.2661 286° West 434 499 36,000 -60 Descending Minneapolis Center
12:12AM 43.3597 -94.3953 287° West 430 495 36,000  Level Minneapolis Center
12:13AM 43.4000 -94.5903 286° West 440 506 36,100  Climbing Minneapolis Center
12:14AM 43.4344 -94.7531 286° West 443 510 36,100  Level Minneapolis Center
12:15AM 43.4672 -94.9142 286° West 441 507 36,100 -60 Level Minneapolis Center
12:16AM 43.5006 -95.0739 286° West 437 503 36,000 -60 Descending Minneapolis Center
12:17AM 43.5331 -95.2350 286° West 437 503 36,000  Level Minneapolis Center
12:18AM 43.5661 -95.3969 286° West 438 504 36,100  Climbing Minneapolis Center
12:19AM 43.5983 -95.5592 285° West 439 505 36,100  Level Minneapolis Center
12:20AM 43.6311 -95.7214 286° West 438 504 36,100 -60 Level Minneapolis Center
12:21AM 43.6619 -95.8833 285° West 437 503 36,000 -60 Descending Minneapolis Center
12:22AM 43.6936 -96.0439 285° West 433 498 36,000  Level Minneapolis Center
12:23AM 43.7250 -96.2058 285° West 434 499 36,000  Level Minneapolis Center
12:24AM 43.7561 -96.3700 285° West 438 504 36,000  Level Minneapolis Center
12:25AM 43.7875 -96.5339 285° West 439 505 36,100  Climbing Minneapolis Center
12:26AM 43.8189 -96.7003 285° West 444 511 36,100  Level Minneapolis Center
12:27AM 43.8503 -96.8672 285° West 447 514 36,100 -60 Level Minneapolis Center
12:29AM 43.8803 -97.0344 284° West 447 514 36,000  Descending Minneapolis Center
12:30AM 43.9117 -97.2019 285° West 448 516 36,100  Climbing Minneapolis Center
12:31AM 43.9422 -97.3703 284° West 450 518 36,100  Level Minneapolis Center
12:32AM 43.9728 -97.5361 284° West 445 512 36,100 -60 Level Minneapolis Center
12:33AM 44.0019 -97.7028 284° West 444 511 36,000 -60 Descending Minneapolis Center
12:34AM 44.0319 -97.8683 284° West 443 510 36,000  Level Minneapolis Center
12:35AM 44.0611 -98.0381 284° West 450 518 36,100  Climbing Minneapolis Center
12:36AM 44.0911 -98.2072 284° West 450 518 36,100  Level Minneapolis Center
12:37AM 44.1197 -98.3778 283° West 452 520 36,100  Level Minneapolis Center
12:38AM 44.1478 -98.5461 283° West 450 518 36,100  Level Minneapolis Center
12:39AM 44.1761 -98.7075 284° West 447 514 36,100 -60 Level Minneapolis Center
12:40AM 44.2044 -98.8744 283° West 443 510 36,000 -60 Descending Minneapolis Center
12:41AM 44.2442 -99.1097 283° West 444 511 36,000  Level Minneapolis Center
12:42AM 44.2708 -99.2806 282° West 448 516 36,100  Climbing Minneapolis Center
12:43AM 44.2981 -99.4494 283° West 447 514 36,100  Level Minneapolis Center
12:44AM 44.3247 -99.6203 282° West 448 516 36,100  Level Minneapolis Center
12:45AM 44.3514 -99.7897 282° West 447 514 36,100  Level Minneapolis Center
12:46AM 44.3781 -99.9578 283° West 445 512 36,100 -60 Level Minneapolis Center
12:47AM 44.4039 -100.1242 282° West 441 507 36,000  Descending Minneapolis Center
12:48AM 44.4294 -100.2911 282° West 438 504 36,100  Climbing Minneapolis Center
12:49AM 44.4547 -100.4575 282° West 436 502 36,100  Level Minneapolis Center
12:50AM 44.4794 -100.6244 282° West 436 502 36,100 -60 Level Minneapolis Center
12:51AM 44.5044 -100.7925 282° West 438 504 36,000  Descending Minneapolis Center
12:52AM 44.5292 -100.9592 282° West 437 503 36,100  Climbing Minneapolis Center
12:53AM 44.5533 -101.1261 282° West 437 503 36,100  Level Minneapolis Center
12:54AM 44.5778 -101.2925 282° West 436 502 36,100 -60 Level Minneapolis Center
12:55AM 44.6019 -101.4592 282° West 436 502 36,000  Descending Minneapolis Center
12:56AM 44.6250 -101.6253 281° West 435 501 36,100  Climbing Minneapolis Center
12:57AM 44.6489 -101.7925 281° West 435 501 36,000 -60 Descending Minneapolis Center
12:58AM 44.6733 -101.9608 282° West 437 503 36,000  Level Minneapolis Center
12:59AM 44.6958 -102.1289 281° West 438 504 36,100  Climbing Minneapolis Center
01:00AM 44.7122 -102.2611 280° West 436 502 36,100 -60 Level Denver Center
01:01AM 44.7347 -102.4283 281° West 436 502 36,000  Descending Denver Center
01:02AM 44.7611 -102.6308 280° West 438 504 36,100  Climbing Denver Center
01:03AM 44.7828 -102.7958 281° West 432 497 36,100  Level Denver Center
01:04AM 44.8047 -102.9625 281° West 432 497 36,100 -60 Level Denver Center
01:05AM 44.8267 -103.1289 281° West 432 497 36,000 -60 Descending Denver Center
01:06AM 44.8469 -103.2919 280° West 427 491 36,000  Level Denver Center
01:07AM 44.8661 -103.4572 279° West 425 489 36,000  Level Denver Center
01:08AM 44.8864 -103.6128 280° West 430 495 36,100  Climbing Denver Center
01:09AM 44.9078 -103.7972 279° West 429 494 36,100 -60 Level Denver Center
01:10AM 44.9275 -103.9550 280° West 429 494 36,000  Descending Denver Center
01:11AM 44.9458 -104.1164 279° West 435 501 36,100  Climbing Denver Center
01:12AM 44.9672 -104.3006 279° West 428 493 36,100  Level Denver Center
01:13AM 44.9850 -104.4578 279° West 425 489 36,100 -60 Level Denver Center
01:14AM 45.0033 -104.6142 279° West 422 486 36,000  Descending Denver Center
01:15AM 45.0250 -104.8008 279° West 424 488 36,100  Climbing Salt Lake Center
01:16AM 45.0417 -104.9600 278° West 425 489 36,100  Level Denver Center
01:17AM 45.0581 -105.1172 278° West 424 488 36,100 -60 Level Denver Center
01:18AM 45.0792 -105.3011 279° West 425 489 36,000  Descending Denver Center
01:19AM 45.0947 -105.4597 278° West 425 489 36,100  Climbing Denver Center
01:20AM 45.1114 -105.6181 279° West 425 489 36,100  Level Denver Center
01:21AM 45.1306 -105.8028 278° West 426 490 36,100  Level Denver Center
01:22AM 45.1464 -105.9606 278° West 424 488 36,100 -60 Level Denver Center
01:23AM 45.1619 -106.1183 278° West 424 488 36,000 -60 Descending Denver Center
01:24AM 45.1778 -106.2750 278° West 422 486 36,000  Level Denver Center
01:25AM 45.1953 -106.4597 278° West 424 488 36,100  Climbing Denver Center
01:26AM 45.2100 -106.6158 278° West 419 482 36,100  Level Denver Center
01:27AM 45.2297 -106.8244 278° West 420 483 36,100  Level Salt Lake Center
01:28AM 45.2442 -106.9811 278° West 419 482 36,100  Level Salt Lake Center
01:29AM 45.2592 -107.1353 278° West 415 478 36,100 -60 Level Salt Lake Center
01:30AM 45.2736 -107.3128 277° West 408 470 36,000 -60 Descending Salt Lake Center
01:31AM 45.2872 -107.4667 277° West 410 472 36,000  Level Salt Lake Center
01:32AM 45.3006 -107.6183 277° West 408 470 36,000  Level Salt Lake Center
01:33AM 45.3147 -107.7972 276° West 410 472 36,000  Level Salt Lake Center
01:34AM 45.3283 -107.9497 277° West 410 472 36,100  Climbing Salt Lake Center
01:35AM 45.3408 -108.1031 277° West 413 475 36,100  Level Salt Lake Center
01:36AM 45.3547 -108.2814 276° West 410 472 36,100  Level Salt Lake Center
01:37AM 45.3664 -108.4344 276° West 409 471 36,100  Level Salt Lake Center
01:38AM 45.3781 -108.5869 276° West 408 470 36,100  Level Salt Lake Center
01:39AM 45.3908 -108.7650 276° West 407 468 36,100  Level Salt Lake Center
01:41AM 45.4033 -108.9169 277° West 406 467 36,100 -60 Level Salt Lake Center
01:42AM 45.4136 -109.0686 276° West 404 465 36,000  Descending Salt Lake Center
01:43AM 45.4278 -109.2464 277° West 405 466 36,100  Climbing Salt Lake Center
01:44AM 45.4375 -109.3992 275° West 406 467 36,100 -60 Level Salt Lake Center
01:45AM 45.4481 -109.5508 276° West 405 466 36,000 -60 Descending Salt Lake Center
01:46AM 45.4603 -109.7275 276° West 405 466 36,000  Level Salt Lake Center
01:47AM 45.4703 -109.8800 275° West 407 468 36,100  Climbing Salt Lake Center
01:48AM 45.4797 -110.0325 275° West 406 467 36,100  Level Salt Lake Center
01:49AM 45.4908 -110.2108 275° West 405 466 36,100 -60 Level Salt Lake Center
01:50AM 45.5003 -110.3619 275° West 403 464 36,000  Descending Salt Lake Center
01:51AM 45.5097 -110.5161 275° West 406 467 36,100  Climbing Salt Lake Center
01:52AM 45.5181 -110.6822 274° West 403 464 36,100  Level Salt Lake Center
01:53AM 45.5275 -110.8439 275° West 406 467 36,100  Level Salt Lake Center
01:54AM 45.5356 -111.0042 274° West 402 463 36,100 -60 Level Salt Lake Center
01:55AM 45.5447 -111.1661 275° West 404 465 36,000 -60 Descending Salt Lake Center
01:56AM 45.5528 -111.3289 274° West 406 467 36,000  Level Salt Lake Center
01:57AM 45.5617 -111.4889 275° West 403 464 36,100  Climbing Salt Lake Center
01:58AM 45.5703 -111.6478 274° West 401 461 36,100 -60 Level Salt Lake Center
01:59AM 45.5783 -111.8069 274° West 400 460 36,000  Descending Salt Lake Center
02:00AM 45.5858 -111.9667 274° West 402 463 36,100  Climbing Salt Lake Center
02:01AM 45.5922 -112.1258 273° West 401 461 36,100 -60 Level Salt Lake Center
02:02AM 45.5992 -112.2844 274° West 399 459 36,000  Descending Salt Lake Center
02:03AM 45.6064 -112.4439 274° West 402 463 36,100  Climbing Salt Lake Center
02:04AM 45.6139 -112.6033 274° West 403 464 36,100  Level Salt Lake Center
02:05AM 45.6186 -112.7606 273° West 397 457 36,100 -60 Level Salt Lake Center
02:06AM 45.6261 -112.9183 274° West 397 457 36,000  Descending Salt Lake Center
02:07AM 45.6322 -113.0736 273° West 395 455 36,100  Climbing Salt Lake Center
02:08AM 45.6367 -113.2300 272° West 394 453 36,000 -60 Descending Salt Lake Center
02:09AM 45.6433 -113.3853 274° West 391 450 36,000  Level Salt Lake Center
02:10AM 45.6469 -113.5408 272° West 392 451 36,000  Level Salt Lake Center
02:11AM 45.6542 -113.6889 274° West 394 453 36,100  Climbing Salt Lake Center
02:12AM 45.6589 -113.8439 273° West 392 451 36,000 -60 Descending Salt Lake Center
02:13AM 45.6628 -113.9989 272° West 391 450 36,000  Level Salt Lake Center
02:14AM 45.6678 -114.1547 273° West 392 451 36,000  Level Salt Lake Center
02:15AM 45.6722 -114.3436 272° West 396 456 36,000  Level Salt Lake Center
02:16AM 45.6756 -114.4969 272° West 391 450 36,100  Climbing Salt Lake Center
02:17AM 45.6794 -114.6456 272° West 392 451 36,100 -60 Level Salt Lake Center
02:18AM 45.6828 -114.7944 272° West 393 452 36,000 -60 Descending Salt Lake Center
02:19AM 45.6878 -114.9681 272° West 392 451 36,000  Level Salt Lake Center
02:20AM 45.6897 -115.1164 271° West 392 451 36,100  Climbing Salt Lake Center
02:21AM 45.6925 -115.2653 272° West 392 451 36,100  Level Salt Lake Center
02:22AM 45.6956 -115.4358 272° West 387 445 36,100 -120 Level Salt Lake Center
02:22AM 45.6967 -115.5172 271° West 387 445 36,000 -120 Descending Seattle Center
02:23AM 45.6986 -115.6703 271° West 386 444 36,000 60 Level Seattle Center
02:24AM 45.6997 -115.7286 272° West 385 443 36,100 60 Climbing Salt Lake Center
02:25AM 45.7022 -115.9019 271° West 388 447 36,100 -120 Level Salt Lake Center
02:26AM 45.7017 -115.9794 269° West 388 447 36,000 -120 Descending Seattle Center
02:27AM 45.7044 -116.1336 272° West 389 448 36,000  Level Seattle Center
02:28AM 45.7050 -116.2872 270° West 388 447 36,000  Level Seattle Center
02:29AM 45.7069 -116.4392 271° West 384 442 36,000  Level Seattle Center
02:30AM 45.7083 -116.5931 271° West 387 445 36,000  Level Seattle Center
02:31AM 45.7092 -116.7453 271° West 384 442 36,000  Level Seattle Center
02:32AM 45.7094 -116.8978 270° West 383 441 36,000  Level Seattle Center
02:33AM 45.7097 -117.0511 270° West 385 443 36,000  Level Seattle Center
02:34AM 45.7097 -117.2025 270° West 383 441 36,000  Level Seattle Center
02:35AM 45.7094 -117.3553 270° West 385 443 36,000  Level Seattle Center
02:36AM 45.7103 -117.5072 271° West 382 440 36,000  Level Seattle Center
02:37AM 45.7097 -117.6583 270° West 382 440 36,000  Level Seattle Center
02:39AM 45.7069 -117.9583 269° West 378 435 36,000  Level Seattle Center
02:40AM 45.7067 -118.1106 270° West 381 438 36,000  Level Seattle Center
02:41AM 45.7056 -118.2600 269° West 378 435 36,000  Level Seattle Center
02:42AM 45.7044 -118.4100 269° West 377 434 36,000  Level Seattle Center
02:43AM 45.7025 -118.5700 269° West 379 436 36,100  Climbing Seattle Center
02:44AM 45.7008 -118.7200 269° West 380 437 36,100  Level Seattle Center
02:45AM 45.6986 -118.8708 269° West 381 438 36,100  Level Seattle Center
02:46AM 45.6894 -119.0203 265° West 383 441 36,100  Level Seattle Center
02:47AM 45.6719 -119.1678 260° West 381 438 36,100  Level Seattle Center
02:48AM 45.6561 -119.3178 261° West 383 441 36,100  Level Seattle Center
02:49AM 45.6414 -119.4669 262° West 383 441 36,100  Level Seattle Center
02:50AM 45.6356 -119.6181 267° West 383 441 36,100 -60 Level Seattle Center
02:51AM 45.6289 -119.7692 266° West 384 442 36,000  Descending Seattle Center
02:52AM 45.6225 -119.9203 267° West 386 444 36,100  Climbing Seattle Center
02:53AM 45.6150 -120.0714 266° West 385 443 36,100 -600 Level Seattle Center
02:54AM 45.6072 -120.2217 266° West 386 444 34,900 -2,160 Descending Seattle Center
02:55AM 45.5994 -120.3747 266° West 387 445 31,800 -3,180 Descending Seattle Center
02:56AM 45.5922 -120.5317 266° West 397 457 28,600 -2,880 Descending Seattle Center
02:57AM 45.5839 -120.6889 266° West 400 460 26,100 -2,700 Descending Seattle Center
02:58AM 45.5731 -120.8722 265° West 392 451 23,200 -2,640 Descending Seattle Center
02:59AM 45.5658 -121.0208 266° West 380 437 20,900 -2,340 Descending Seattle Center
03:00AM 45.5569 -121.1664 265° West 372 428 18,600 -2,040 Descending Seattle Center
03:00AM 45.5525 -121.2700 267° West 368 423 17,400 -1,620 Descending Seattle Center
03:01AM 45.5500 -121.3053 264° West 356 410 17,000 -2,100 Descending Seattle Center
03:02AM 45.5444 -121.4253 266° West 335 386 15,100 -2,220 Descending Seattle Center
03:03AM 45.5350 -121.5656 265° West 329 379 12,700 -2,280 Descending Seattle Center
03:04AM 45.5272 -121.6833 265° West 326 375 10,600 -1,440 Descending Seattle Center
03:05AM 45.5219 -121.8031 266° West 296 341 10,000 -1,200 Descending Seattle Center
03:06AM 45.5208 -121.9117 269° West 275 316 8,200 -1,680 Descending Seattle Center
03:07AM 45.5181 -122.0242 268° West 284 327 6,700 -1,440 Descending Seattle Center
03:08AM 45.5161 -122.1300 269° West 268 308 5,300 -780 Descending Seattle Center
03:09AM 45.5161 -122.2256 270° West 226 260 5,200 -660 Descending Seattle Center
03:10AM 45.5125 -122.3136 267° West 204 235 4,000 -1,140 Descending Seattle Center
03:11AM 45.5183 -122.3850 277° West 171 197 3,000 -1,020 Descending Seattle Center
03:12AM 45.5353 -122.4461 292° West 161 185 2,000 -900 Descending Seattle Center
03:13AM 45.5561 -122.4961 301° West 143 165 1,200 -780 Descending Seattle Center
03:14AM 45.5719 -122.5419 296° West 128 147 500 -540 Descending Seattle Center
03:15AM 45.5922 -122.5889 302° West 142 163 100 -420 Descending Seattle Center